sensor_id;sensor_type;location;lat;lon;timestamp;pressure;altitude;pressure_sealevel;temperature;humidity
74594;BME280;63097;51.872;4.460;2023-08-20T00:00:44;102195.59;;;18.68;85.36
74594;BME280;63097;51.872;4.460;2023-08-20T00:03:11;102124.34;;;18.36;85.48
74594;BME280;63097;51.872;4.460;2023-08-20T00:05:38;102185.72;;;18.65;85.33
74594;BME280;63097;51.872;4.460;2023-08-20T00:08:04;102192.44;;;18.64;85.94
74594;BME280;63097;51.872;4.460;2023-08-20T00:10:30;102182.56;;;18.57;85.52
74594;BME280;63097;51.872;4.460;2023-08-20T00:12:55;102201.53;;;18.71;85.90
74594;BME280;63097;51.872;4.460;2023-08-20T00:15:20;102201.00;;;18.84;85.51
74594;BME280;63097;51.872;4.460;2023-08-20T00:17:46;102198.75;;;18.86;85.60
74594;BME280;63097;51.872;4.460;2023-08-20T00:20:13;102199.91;;;18.85;84.91
74594;BME280;63097;51.872;4.460;2023-08-20T00:22:39;102198.47;;;18.83;85.58
74594;BME280;63097;51.872;4.460;2023-08-20T00:25:05;102209.53;;;18.94;84.87
74594;BME280;63097;51.872;4.460;2023-08-20T00:27:32;102185.53;;;18.87;84.83
74594;BME280;63097;51.872;4.460;2023-08-20T00:29:58;102205.84;;;18.99;84.84
74594;BME280;63097;51.872;4.460;2023-08-20T00:32:24;102215.19;;;18.99;85.58
74594;BME280;63097;51.872;4.460;2023-08-20T00:34:50;102219.72;;;19.00;85.10
74594;BME280;63097;51.872;4.460;2023-08-20T00:37:16;102218.56;;;18.96;85.06
74594;BME280;63097;51.872;4.460;2023-08-20T00:39:41;102215.19;;;19.04;85.05
74594;BME280;63097;51.872;4.460;2023-08-20T00:42:07;102236.09;;;19.08;85.06
74594;BME280;63097;51.872;4.460;2023-08-20T00:44:33;102189.78;;;18.89;84.94
74594;BME280;63097;51.872;4.460;2023-08-20T00:46:59;102237.81;;;19.20;83.77
74594;BME280;63097;51.872;4.460;2023-08-20T00:49:24;102229.28;;;19.04;84.19
74594;BME280;63097;51.872;4.460;2023-08-20T00:51:50;102237.75;;;18.99;84.97
74594;BME280;63097;51.872;4.460;2023-08-20T00:54:15;102234.94;;;19.04;84.68
74594;BME280;63097;51.872;4.460;2023-08-20T00:56:42;102245.09;;;19.00;85.07
74594;BME280;63097;51.872;4.460;2023-08-20T00:59:08;102231.22;;;18.94;84.22
74594;BME280;63097;51.872;4.460;2023-08-20T01:01:33;102231.56;;;19.02;84.11
74594;BME280;63097;51.872;4.460;2023-08-20T01:03:59;102236.63;;;19.00;84.18
74594;BME280;63097;51.872;4.460;2023-08-20T01:06:39;102240.31;;;19.06;83.86
74594;BME280;63097;51.872;4.460;2023-08-20T01:12:00;102244.59;;;19.14;83.44
74594;BME280;63097;51.872;4.460;2023-08-20T01:14:29;102256.69;;;19.09;83.71
74594;BME280;63097;51.872;4.460;2023-08-20T01:16:54;102236.34;;;19.02;83.52
74594;BME280;63097;51.872;4.460;2023-08-20T01:19:21;102243.44;;;19.10;83.26
74594;BME280;63097;51.872;4.460;2023-08-20T01:22:00;102258.41;;;19.15;83.65
74594;BME280;63097;51.872;4.460;2023-08-20T01:30:12;102230.63;;;18.82;84.00
74594;BME280;63097;51.872;4.460;2023-08-20T01:32:39;102249.56;;;18.91;83.80
74594;BME280;63097;51.872;4.460;2023-08-20T01:35:05;102261.94;;;18.90;84.15
74594;BME280;63097;51.872;4.460;2023-08-20T01:37:32;102258.22;;;18.80;84.78
74594;BME280;63097;51.872;4.460;2023-08-20T01:40:00;102253.06;;;18.67;85.05
74594;BME280;63097;51.872;4.460;2023-08-20T01:42:25;102252.09;;;18.46;86.56
74594;BME280;63097;51.872;4.460;2023-08-20T01:44:51;102258.22;;;18.38;87.46
74594;BME280;63097;51.872;4.460;2023-08-20T01:47:17;102236.41;;;18.24;87.44
74594;BME280;63097;51.872;4.460;2023-08-20T01:49:43;102256.88;;;18.14;88.45
74594;BME280;63097;51.872;4.460;2023-08-20T01:52:08;102256.78;;;18.04;88.82
74594;BME280;63097;51.872;4.460;2023-08-20T01:54:33;102253.16;;;18.03;90.02
74594;BME280;63097;51.872;4.460;2023-08-20T01:57:01;102244.88;;;17.92;89.83
74594;BME280;63097;51.872;4.460;2023-08-20T01:59:26;102242.53;;;17.84;90.78
74594;BME280;63097;51.872;4.460;2023-08-20T02:01:52;102247.25;;;17.78;91.35
74594;BME280;63097;51.872;4.460;2023-08-20T02:04:17;102247.22;;;17.73;91.88
74594;BME280;63097;51.872;4.460;2023-08-20T02:06:42;102244.50;;;17.57;92.32
74594;BME280;63097;51.872;4.460;2023-08-20T02:09:10;102248.38;;;17.51;92.61
74594;BME280;63097;51.872;4.460;2023-08-20T02:11:35;102243.34;;;17.53;94.03
74594;BME280;63097;51.872;4.460;2023-08-20T02:14:02;102203.88;;;17.21;94.22
74594;BME280;63097;51.872;4.460;2023-08-20T02:16:27;102241.19;;;17.38;94.72
74594;BME280;63097;51.872;4.460;2023-08-20T02:18:53;102243.34;;;17.31;95.64
74594;BME280;63097;51.872;4.460;2023-08-20T02:21:18;102260.75;;;17.28;96.07
74594;BME280;63097;51.872;4.460;2023-08-20T02:23:43;102240.13;;;17.18;96.13
74594;BME280;63097;51.872;4.460;2023-08-20T02:26:09;102263.91;;;17.32;95.44
74594;BME280;63097;51.872;4.460;2023-08-20T02:28:34;102255.13;;;17.28;95.79
74594;BME280;63097;51.872;4.460;2023-08-20T02:31:04;102254.22;;;17.23;95.10
74594;BME280;63097;51.872;4.460;2023-08-20T02:33:29;102257.31;;;17.21;95.51
74594;BME280;63097;51.872;4.460;2023-08-20T02:36:00;102230.41;;;17.08;95.37
74594;BME280;63097;51.872;4.460;2023-08-20T02:38:25;102261.63;;;17.29;95.31
74594;BME280;63097;51.872;4.460;2023-08-20T02:40:52;102261.03;;;17.27;95.35
74594;BME280;63097;51.872;4.460;2023-08-20T02:43:17;102255.00;;;17.18;95.70
74594;BME280;63097;51.872;4.460;2023-08-20T02:45:43;102260.22;;;17.31;95.67
74594;BME280;63097;51.872;4.460;2023-08-20T02:48:08;102263.03;;;17.31;94.50
74594;BME280;63097;51.872;4.460;2023-08-20T02:50:34;102267.03;;;17.35;94.50
74594;BME280;63097;51.872;4.460;2023-08-20T02:52:59;102277.91;;;17.48;94.47
74594;BME280;63097;51.872;4.460;2023-08-20T02:55:24;102281.03;;;17.52;94.35
74594;BME280;63097;51.872;4.460;2023-08-20T02:57:50;102279.91;;;17.53;94.00
74594;BME280;63097;51.872;4.460;2023-08-20T03:00:15;102285.63;;;17.58;93.72
74594;BME280;63097;51.872;4.460;2023-08-20T03:02:40;102282.28;;;17.61;94.15
74594;BME280;63097;51.872;4.460;2023-08-20T03:05:06;102280.31;;;17.61;93.66
74594;BME280;63097;51.872;4.460;2023-08-20T03:07:31;102288.16;;;17.59;93.88
74594;BME280;63097;51.872;4.460;2023-08-20T03:09:56;102290.41;;;17.57;93.59
74594;BME280;63097;51.872;4.460;2023-08-20T03:12:22;102288.94;;;17.55;94.19
74594;BME280;63097;51.872;4.460;2023-08-20T03:14:47;102292.84;;;17.49;95.33
74594;BME280;63097;51.872;4.460;2023-08-20T03:17:13;102291.81;;;17.38;95.09
74594;BME280;63097;51.872;4.460;2023-08-20T03:19:56;102288.34;;;17.31;95.54
74594;BME280;63097;51.872;4.460;2023-08-20T03:22:22;102285.53;;;17.31;96.02
74594;BME280;63097;51.872;4.460;2023-08-20T03:24:48;102289.75;;;17.29;96.51
74594;BME280;63097;51.872;4.460;2023-08-20T03:27:13;102267.88;;;17.14;96.78
74594;BME280;63097;51.872;4.460;2023-08-20T03:29:39;102289.66;;;17.24;97.61
74594;BME280;63097;51.872;4.460;2023-08-20T03:32:04;102281.03;;;17.08;97.74
74594;BME280;63097;51.872;4.460;2023-08-20T03:34:29;102294.38;;;16.96;98.86
74594;BME280;63097;51.872;4.460;2023-08-20T03:36:55;102288.06;;;16.68;100.00
74594;BME280;63097;51.872;4.460;2023-08-20T03:39:21;102287.47;;;16.66;99.97
74594;BME280;63097;51.872;4.460;2023-08-20T03:41:48;102281.78;;;16.61;99.88
74594;BME280;63097;51.872;4.460;2023-08-20T03:44:13;102287.81;;;16.53;100.00
74594;BME280;63097;51.872;4.460;2023-08-20T03:46:38;102286.91;;;16.47;100.00
74594;BME280;63097;51.872;4.460;2023-08-20T03:49:03;102289.69;;;16.47;100.00
74594;BME280;63097;51.872;4.460;2023-08-20T03:51:29;102285.41;;;16.45;100.00
74594;BME280;63097;51.872;4.460;2023-08-20T03:53:54;102284.75;;;16.38;100.00
74594;BME280;63097;51.872;4.460;2023-08-20T03:56:19;102266.28;;;16.25;100.00
74594;BME280;63097;51.872;4.460;2023-08-20T03:58:45;102282.00;;;16.26;100.00
74594;BME280;63097;51.872;4.460;2023-08-20T04:01:12;102295.97;;;16.21;100.00
74594;BME280;63097;51.872;4.460;2023-08-20T04:03:38;102292.06;;;16.22;100.00
74594;BME280;63097;51.872;4.460;2023-08-20T04:06:03;102295.97;;;16.21;100.00
74594;BME280;63097;51.872;4.460;2023-08-20T04:08:29;102296.50;;;16.18;100.00
74594;BME280;63097;51.872;4.460;2023-08-20T04:10:54;102296.91;;;16.27;100.00
74594;BME280;63097;51.872;4.460;2023-08-20T04:13:19;102302.13;;;16.35;100.00
74594;BME280;63097;51.872;4.460;2023-08-20T04:15:46;102297.34;;;16.19;100.00
74594;BME280;63097;51.872;4.460;2023-08-20T04:18:12;102318.34;;;16.16;100.00
74594;BME280;63097;51.872;4.460;2023-08-20T04:20:37;102319.47;;;15.98;100.00
74594;BME280;63097;51.872;4.460;2023-08-20T04:23:05;102333.22;;;16.00;100.00
74594;BME280;63097;51.872;4.460;2023-08-20T04:25:31;102324.81;;;16.00;100.00
74594;BME280;63097;51.872;4.460;2023-08-20T04:27:56;102332.38;;;15.99;100.00
74594;BME280;63097;51.872;4.460;2023-08-20T04:30:22;102330.50;;;16.05;100.00
74594;BME280;63097;51.872;4.460;2023-08-20T04:32:47;102308.72;;;15.95;100.00
74594;BME280;63097;51.872;4.460;2023-08-20T04:35:12;102335.53;;;16.03;100.00
74594;BME280;63097;51.872;4.460;2023-08-20T04:37:38;102342.38;;;15.95;100.00
74594;BME280;63097;51.872;4.460;2023-08-20T04:40:06;102328.88;;;15.92;100.00
74594;BME280;63097;51.872;4.460;2023-08-20T04:42:32;102327.25;;;15.80;100.00
74594;BME280;63097;51.872;4.460;2023-08-20T04:44:57;102334.41;;;15.87;100.00
74594;BME280;63097;51.872;4.460;2023-08-20T04:47:22;102336.53;;;15.97;100.00
74594;BME280;63097;51.872;4.460;2023-08-20T04:49:49;102327.28;;;15.96;100.00
74594;BME280;63097;51.872;4.460;2023-08-20T04:52:14;102343.34;;;16.01;100.00
74594;BME280;63097;51.872;4.460;2023-08-20T04:54:40;102346.00;;;16.07;100.00
74594;BME280;63097;51.872;4.460;2023-08-20T04:57:05;102345.16;;;16.07;100.00
74594;BME280;63097;51.872;4.460;2023-08-20T04:59:30;102349.63;;;16.08;100.00
74594;BME280;63097;51.872;4.460;2023-08-20T05:01:56;102343.41;;;16.06;100.00
74594;BME280;63097;51.872;4.460;2023-08-20T05:04:22;102346.94;;;16.13;100.00
74594;BME280;63097;51.872;4.460;2023-08-20T05:06:47;102340.63;;;16.23;100.00
74594;BME280;63097;51.872;4.460;2023-08-20T05:09:13;102335.34;;;16.26;100.00
74594;BME280;63097;51.872;4.460;2023-08-20T05:11:38;102348.13;;;16.34;100.00
74594;BME280;63097;51.872;4.460;2023-08-20T05:14:03;102341.91;;;16.32;100.00
74594;BME280;63097;51.872;4.460;2023-08-20T05:16:29;102348.91;;;16.29;100.00
74594;BME280;63097;51.872;4.460;2023-08-20T05:18:54;102356.81;;;16.32;100.00
74594;BME280;63097;51.872;4.460;2023-08-20T05:21:19;102352.66;;;16.35;100.00
74594;BME280;63097;51.872;4.460;2023-08-20T05:23:44;102353.00;;;16.38;100.00
74594;BME280;63097;51.872;4.460;2023-08-20T05:26:10;102343.22;;;16.41;100.00
74594;BME280;63097;51.872;4.460;2023-08-20T05:28:36;102348.59;;;16.42;100.00
74594;BME280;63097;51.872;4.460;2023-08-20T05:31:02;102351.84;;;16.51;100.00
74594;BME280;63097;51.872;4.460;2023-08-20T05:33:27;102327.31;;;16.46;100.00
74594;BME280;63097;51.872;4.460;2023-08-20T05:35:52;102356.25;;;16.63;100.00
74594;BME280;63097;51.872;4.460;2023-08-20T05:38:19;102348.50;;;16.70;100.00
74594;BME280;63097;51.872;4.460;2023-08-20T05:40:44;102344.72;;;16.81;100.00
74594;BME280;63097;51.872;4.460;2023-08-20T05:43:09;102335.28;;;16.87;100.00
74594;BME280;63097;51.872;4.460;2023-08-20T05:45:36;102339.41;;;17.01;100.00
74594;BME280;63097;51.872;4.460;2023-08-20T05:48:06;102340.66;;;17.10;100.00
74594;BME280;63097;51.872;4.460;2023-08-20T05:50:31;102333.09;;;17.11;100.00
74594;BME280;63097;51.872;4.460;2023-08-20T05:52:58;102342.84;;;17.25;100.00
74594;BME280;63097;51.872;4.460;2023-08-20T05:55:25;102341.25;;;17.34;100.00
74594;BME280;63097;51.872;4.460;2023-08-20T05:57:50;102332.19;;;17.27;100.00
74594;BME280;63097;51.872;4.460;2023-08-20T06:00:15;102335.50;;;17.46;100.00
74594;BME280;63097;51.872;4.460;2023-08-20T06:02:42;102341.09;;;17.62;100.00
74594;BME280;63097;51.872;4.460;2023-08-20T06:05:09;102344.69;;;17.79;100.00
74594;BME280;63097;51.872;4.460;2023-08-20T06:07:35;102347.31;;;17.91;99.21
74594;BME280;63097;51.872;4.460;2023-08-20T06:10:01;102348.69;;;18.15;99.46
74594;BME280;63097;51.872;4.460;2023-08-20T06:12:27;102325.72;;;18.28;98.75
74594;BME280;63097;51.872;4.460;2023-08-20T06:14:52;102346.28;;;18.55;97.47
74594;BME280;63097;51.872;4.460;2023-08-20T06:17:17;102352.03;;;18.70;95.33
74594;BME280;63097;51.872;4.460;2023-08-20T06:19:44;102358.00;;;18.79;94.74
74594;BME280;63097;51.872;4.460;2023-08-20T06:22:10;102335.53;;;18.89;94.27
74594;BME280;63097;51.872;4.460;2023-08-20T06:24:35;102343.22;;;18.98;93.14
74594;BME280;63097;51.872;4.460;2023-08-20T06:27:01;102356.53;;;19.08;92.10
74594;BME280;63097;51.872;4.460;2023-08-20T06:29:26;102351.25;;;19.22;92.71
74594;BME280;63097;51.872;4.460;2023-08-20T06:31:51;102355.00;;;19.32;91.10
74594;BME280;63097;51.872;4.460;2023-08-20T06:34:16;102352.22;;;19.37;90.15
74594;BME280;63097;51.872;4.460;2023-08-20T06:36:42;102359.84;;;19.42;89.70
74594;BME280;63097;51.872;4.460;2023-08-20T06:39:08;102363.03;;;19.60;90.58
74594;BME280;63097;51.872;4.460;2023-08-20T06:41:33;102365.56;;;19.62;88.82
74594;BME280;63097;51.872;4.460;2023-08-20T06:43:59;102361.06;;;19.61;88.51
74594;BME280;63097;51.872;4.460;2023-08-20T06:46:24;102366.25;;;19.94;89.50
74594;BME280;63097;51.872;4.460;2023-08-20T06:48:49;102370.50;;;19.96;86.90
74594;BME280;63097;51.872;4.460;2023-08-20T06:51:18;102367.44;;;20.18;85.48
74594;BME280;63097;51.872;4.460;2023-08-20T06:53:44;102364.88;;;20.17;84.55
74594;BME280;63097;51.872;4.460;2023-08-20T06:56:10;102379.66;;;20.29;85.73
74594;BME280;63097;51.872;4.460;2023-08-20T06:58:36;102385.59;;;20.27;84.32
74594;BME280;63097;51.872;4.460;2023-08-20T07:01:01;102376.53;;;20.30;83.79
74594;BME280;63097;51.872;4.460;2023-08-20T07:03:26;102378.78;;;20.33;85.12
74594;BME280;63097;51.872;4.460;2023-08-20T07:05:52;102371.47;;;20.57;84.65
74594;BME280;63097;51.872;4.460;2023-08-20T07:08:17;102382.19;;;20.60;83.08
74594;BME280;63097;51.872;4.460;2023-08-20T07:10:44;102396.59;;;20.64;83.39
74594;BME280;63097;51.872;4.460;2023-08-20T07:13:09;102357.03;;;20.64;82.54
74594;BME280;63097;51.872;4.460;2023-08-20T07:15:34;102400.28;;;20.89;82.44
74594;BME280;63097;51.872;4.460;2023-08-20T07:17:59;102403.69;;;21.17;81.08
74594;BME280;63097;51.872;4.460;2023-08-20T07:20:25;102403.97;;;21.15;81.35
74594;BME280;63097;51.872;4.460;2023-08-20T07:22:50;102400.00;;;21.16;80.91
74594;BME280;63097;51.872;4.460;2023-08-20T07:25:15;102404.78;;;21.21;78.80
74594;BME280;63097;51.872;4.460;2023-08-20T07:27:40;102411.31;;;21.21;79.43
74594;BME280;63097;51.872;4.460;2023-08-20T07:30:06;102409.03;;;21.28;78.06
74594;BME280;63097;51.872;4.460;2023-08-20T07:32:32;102399.97;;;21.31;78.18
74594;BME280;63097;51.872;4.460;2023-08-20T07:34:57;102399.97;;;21.31;77.88
74594;BME280;63097;51.872;4.460;2023-08-20T07:37:22;102411.81;;;21.48;77.75
74594;BME280;63097;51.872;4.460;2023-08-20T07:39:47;102414.09;;;21.51;77.25
74594;BME280;63097;51.872;4.460;2023-08-20T07:42:13;102424.75;;;21.79;75.92
74594;BME280;63097;51.872;4.460;2023-08-20T07:44:38;102428.47;;;21.65;75.34
74594;BME280;63097;51.872;4.460;2023-08-20T07:47:03;102424.81;;;21.64;76.64
74594;BME280;63097;51.872;4.460;2023-08-20T07:49:28;102424.53;;;21.61;75.29
74594;BME280;63097;51.872;4.460;2023-08-20T07:51:54;102415.41;;;21.84;76.04
74594;BME280;63097;51.872;4.460;2023-08-20T07:54:19;102424.06;;;22.08;75.61
74594;BME280;63097;51.872;4.460;2023-08-20T07:56:44;102432.22;;;22.19;74.46
74594;BME280;63097;51.872;4.460;2023-08-20T07:59:09;102426.78;;;22.28;73.94
74594;BME280;63097;51.872;4.460;2023-08-20T08:01:34;102429.78;;;22.46;72.89
74594;BME280;63097;51.872;4.460;2023-08-20T08:04:00;102439.94;;;22.57;71.61
74594;BME280;63097;51.872;4.460;2023-08-20T08:06:25;102428.09;;;22.40;71.60
74594;BME280;63097;51.872;4.460;2023-08-20T08:08:50;102443.16;;;22.41;71.91
74594;BME280;63097;51.872;4.460;2023-08-20T08:11:15;102430.66;;;22.42;71.49
74594;BME280;63097;51.872;4.460;2023-08-20T08:13:41;102421.16;;;22.23;70.64
74594;BME280;63097;51.872;4.460;2023-08-20T08:16:06;102419.50;;;22.60;71.07
74594;BME280;63097;51.872;4.460;2023-08-20T08:18:31;102423.63;;;22.73;69.41
74594;BME280;63097;51.872;4.460;2023-08-20T08:20:56;102440.97;;;23.05;68.27
74594;BME280;63097;51.872;4.460;2023-08-20T08:23:22;102432.41;;;23.10;68.57
74594;BME280;63097;51.872;4.460;2023-08-20T08:25:47;102433.09;;;23.26;68.67
74594;BME280;63097;51.872;4.460;2023-08-20T08:28:12;102441.44;;;23.46;66.63
74594;BME280;63097;51.872;4.460;2023-08-20T08:30:38;102437.16;;;23.72;66.31
74594;BME280;63097;51.872;4.460;2023-08-20T08:33:03;102441.09;;;23.76;65.49
74594;BME280;63097;51.872;4.460;2023-08-20T08:35:29;102425.22;;;23.70;66.38
74594;BME280;63097;51.872;4.460;2023-08-20T08:37:54;102446.91;;;23.66;65.52
74594;BME280;63097;51.872;4.460;2023-08-20T08:40:20;102435.09;;;24.01;64.67
74594;BME280;63097;51.872;4.460;2023-08-20T08:42:49;102440.59;;;23.92;64.32
74594;BME280;63097;51.872;4.460;2023-08-20T08:45:15;102449.31;;;24.01;62.28
74594;BME280;63097;51.872;4.460;2023-08-20T08:47:41;102424.31;;;23.98;61.67
74594;BME280;63097;51.872;4.460;2023-08-20T08:50:07;102446.13;;;24.45;61.83
74594;BME280;63097;51.872;4.460;2023-08-20T08:52:35;102429.53;;;24.33;60.54
74594;BME280;63097;51.872;4.460;2023-08-20T08:55:01;102436.38;;;24.51;59.97
74594;BME280;63097;51.872;4.460;2023-08-20T08:57:28;102447.38;;;24.39;59.88
74594;BME280;63097;51.872;4.460;2023-08-20T08:59:53;102449.81;;;24.45;60.38
74594;BME280;63097;51.872;4.460;2023-08-20T09:02:19;102454.84;;;24.91;59.65
74594;BME280;63097;51.872;4.460;2023-08-20T09:04:44;102457.09;;;24.75;60.01
74594;BME280;63097;51.872;4.460;2023-08-20T09:07:13;102462.78;;;25.07;58.79
74594;BME280;63097;51.872;4.460;2023-08-20T09:09:43;102465.16;;;25.19;58.60
74594;BME280;63097;51.872;4.460;2023-08-20T09:12:19;102447.63;;;25.12;58.62
74594;BME280;63097;51.872;4.460;2023-08-20T09:14:51;102462.81;;;25.39;58.43
74594;BME280;63097;51.872;4.460;2023-08-20T09:17:18;102447.97;;;25.69;58.06
74594;BME280;63097;51.872;4.460;2023-08-20T09:19:44;102440.47;;;25.73;57.46
74594;BME280;63097;51.872;4.460;2023-08-20T09:22:14;102445.56;;;26.04;56.75
74594;BME280;63097;51.872;4.460;2023-08-20T09:27:06;102437.97;;;26.13;55.49
74594;BME280;63097;51.872;4.460;2023-08-20T09:29:33;102444.94;;;25.93;55.61
74594;BME280;63097;51.872;4.460;2023-08-20T09:32:02;102456.69;;;26.05;56.16
74594;BME280;63097;51.872;4.460;2023-08-20T09:34:36;102442.81;;;26.12;55.70
74594;BME280;63097;51.872;4.460;2023-08-20T09:37:01;102446.63;;;26.21;55.43
74594;BME280;63097;51.872;4.460;2023-08-20T09:39:26;102461.53;;;26.54;54.03
74594;BME280;63097;51.872;4.460;2023-08-20T09:41:52;102464.44;;;26.40;55.00
74594;BME280;63097;51.872;4.460;2023-08-20T09:44:17;102459.28;;;26.15;54.58
74594;BME280;63097;51.872;4.460;2023-08-20T09:46:45;102455.03;;;26.26;54.77
74594;BME280;63097;51.872;4.460;2023-08-20T09:49:12;102467.41;;;26.85;55.06
74594;BME280;63097;51.872;4.460;2023-08-20T09:51:40;102457.53;;;27.35;54.28
74594;BME280;63097;51.872;4.460;2023-08-20T09:54:14;102458.38;;;27.66;50.37
74594;BME280;63097;51.872;4.460;2023-08-20T09:56:43;102443.50;;;27.86;49.39
74594;BME280;63097;51.872;4.460;2023-08-20T09:59:12;102455.97;;;27.90;49.29
74594;BME280;63097;51.872;4.460;2023-08-20T10:01:38;102467.09;;;27.92;47.23
74594;BME280;63097;51.872;4.460;2023-08-20T10:04:04;102470.50;;;28.02;47.67
74594;BME280;63097;51.872;4.460;2023-08-20T10:06:31;102468.56;;;28.37;46.95
74594;BME280;63097;51.872;4.460;2023-08-20T10:08:58;102466.28;;;28.56;46.30
74594;BME280;63097;51.872;4.460;2023-08-20T10:11:23;102466.81;;;28.92;45.64
74594;BME280;63097;51.872;4.460;2023-08-20T10:13:49;102469.88;;;28.79;46.19
74594;BME280;63097;51.872;4.460;2023-08-20T10:16:17;102456.34;;;29.39;44.71
74594;BME280;63097;51.872;4.460;2023-08-20T10:18:43;102450.66;;;29.13;44.10
74594;BME280;63097;51.872;4.460;2023-08-20T10:21:08;102472.16;;;29.53;43.92
74594;BME280;63097;51.872;4.460;2023-08-20T10:23:34;102461.56;;;29.92;44.11
74594;BME280;63097;51.872;4.460;2023-08-20T10:26:10;102463.19;;;29.55;42.58
74594;BME280;63097;51.872;4.460;2023-08-20T10:28:35;102460.38;;;29.38;44.49
74594;BME280;63097;51.872;4.460;2023-08-20T10:31:07;102458.56;;;29.16;44.99
74594;BME280;63097;51.872;4.460;2023-08-20T10:33:38;102459.47;;;29.54;44.44
74594;BME280;63097;51.872;4.460;2023-08-20T10:36:08;102450.13;;;30.91;42.33
74594;BME280;63097;51.872;4.460;2023-08-20T10:38:37;102456.13;;;29.99;43.14
74594;BME280;63097;51.872;4.460;2023-08-20T10:41:06;102455.91;;;30.62;41.26
74594;BME280;63097;51.872;4.460;2023-08-20T10:43:37;102459.41;;;30.18;42.30
74594;BME280;63097;51.872;4.460;2023-08-20T10:48:37;102451.19;;;30.37;43.72
74594;BME280;63097;51.872;4.460;2023-08-20T10:51:14;102458.16;;;30.77;41.17
74594;BME280;63097;51.872;4.460;2023-08-20T10:53:41;102455.78;;;30.79;40.94
74594;BME280;63097;51.872;4.460;2023-08-20T10:56:16;102435.38;;;31.13;40.24
74594;BME280;63097;51.872;4.460;2023-08-20T10:58:44;102452.22;;;31.35;38.95
74594;BME280;63097;51.872;4.460;2023-08-20T11:01:21;102441.72;;;30.86;39.01
74594;BME280;63097;51.872;4.460;2023-08-20T11:03:50;102451.50;;;31.71;39.85
74594;BME280;63097;51.872;4.460;2023-08-20T11:06:17;102423.97;;;32.06;36.72
74594;BME280;63097;51.872;4.460;2023-08-20T11:08:43;102445.75;;;32.43;37.36
74594;BME280;63097;51.872;4.460;2023-08-20T11:11:08;102447.34;;;31.93;36.81
74594;BME280;63097;51.872;4.460;2023-08-20T11:13:35;102435.16;;;31.63;37.07
74594;BME280;63097;51.872;4.460;2023-08-20T11:16:02;102444.44;;;32.53;36.97
74594;BME280;63097;51.872;4.460;2023-08-20T11:18:27;102450.31;;;32.56;34.05
74594;BME280;63097;51.872;4.460;2023-08-20T11:20:54;102440.22;;;32.38;34.10
74594;BME280;63097;51.872;4.460;2023-08-20T11:23:19;102435.69;;;32.13;35.82
74594;BME280;63097;51.872;4.460;2023-08-20T11:25:44;102445.03;;;32.58;35.00
74594;BME280;63097;51.872;4.460;2023-08-20T11:28:10;102434.28;;;32.83;35.44
74594;BME280;63097;51.872;4.460;2023-08-20T11:30:35;102410.38;;;32.07;34.72
74594;BME280;63097;51.872;4.460;2023-08-20T11:33:01;102431.25;;;32.04;35.85
74594;BME280;63097;51.872;4.460;2023-08-20T11:35:26;102430.97;;;32.57;35.88
74594;BME280;63097;51.872;4.460;2023-08-20T11:37:55;102417.66;;;32.92;35.28
74594;BME280;63097;51.872;4.460;2023-08-20T11:40:21;102424.28;;;32.81;32.57
74594;BME280;63097;51.872;4.460;2023-08-20T11:42:47;102417.81;;;32.32;33.84
74594;BME280;63097;51.872;4.460;2023-08-20T11:45:12;102421.31;;;31.89;33.66
74594;BME280;63097;51.872;4.460;2023-08-20T11:47:42;102419.75;;;31.92;35.05
74594;BME280;63097;51.872;4.460;2023-08-20T11:50:08;102438.03;;;31.18;35.98
74594;BME280;63097;51.872;4.460;2023-08-20T11:52:35;102437.28;;;30.68;37.36
74594;BME280;63097;51.872;4.460;2023-08-20T11:55:01;102430.06;;;29.75;37.33
74594;BME280;63097;51.872;4.460;2023-08-20T11:57:28;102434.63;;;29.21;37.10
74594;BME280;63097;51.872;4.460;2023-08-20T11:59:54;102440.50;;;29.33;39.86
74594;BME280;63097;51.872;4.460;2023-08-20T12:02:26;102431.56;;;29.26;40.86
74594;BME280;63097;51.872;4.460;2023-08-20T12:04:51;102432.00;;;29.53;39.60
74594;BME280;63097;51.872;4.460;2023-08-20T12:07:17;102440.38;;;30.63;39.12
74594;BME280;63097;51.872;4.460;2023-08-20T12:09:42;102423.63;;;30.65;37.40
74594;BME280;63097;51.872;4.460;2023-08-20T12:12:08;102442.81;;;31.26;35.12
74594;BME280;63097;51.872;4.460;2023-08-20T12:14:34;102442.47;;;31.60;35.04
74594;BME280;63097;51.872;4.460;2023-08-20T12:17:00;102430.63;;;31.74;36.46
74594;BME280;63097;51.872;4.460;2023-08-20T12:19:25;102437.69;;;32.61;33.55
74594;BME280;63097;51.872;4.460;2023-08-20T12:21:51;102434.31;;;33.11;34.29
74594;BME280;63097;51.872;4.460;2023-08-20T12:24:17;102436.06;;;33.15;33.91
74594;BME280;63097;51.872;4.460;2023-08-20T12:26:42;102428.19;;;32.73;34.51
74594;BME280;63097;51.872;4.460;2023-08-20T12:29:08;102431.81;;;33.53;33.46
74594;BME280;63097;51.872;4.460;2023-08-20T12:31:34;102425.66;;;34.16;32.69
74594;BME280;63097;51.872;4.460;2023-08-20T12:34:00;102436.72;;;35.83;29.42
74594;BME280;63097;51.872;4.460;2023-08-20T12:36:26;102425.06;;;35.57;29.81
74594;BME280;63097;51.872;4.460;2023-08-20T12:38:51;102437.59;;;34.84;30.28
74594;BME280;63097;51.872;4.460;2023-08-20T12:41:18;102425.31;;;34.53;30.29
74594;BME280;63097;51.872;4.460;2023-08-20T12:43:44;102438.69;;;35.98;29.12
74594;BME280;63097;51.872;4.460;2023-08-20T12:46:09;102435.09;;;36.30;28.04
74594;BME280;63097;51.872;4.460;2023-08-20T12:48:34;102416.84;;;36.30;28.90
74594;BME280;63097;51.872;4.460;2023-08-20T12:51:00;102425.63;;;36.60;28.05
74594;BME280;63097;51.872;4.460;2023-08-20T12:53:25;102423.16;;;35.87;28.44
74594;BME280;63097;51.872;4.460;2023-08-20T12:55:50;102422.00;;;35.46;29.65